Time;durP1;ratioP1;P1;durP2;ratioP2;P2;SDS_P1;SDS_P2;PMS_P1;PMS_P2;Temp;Humidity;BMP_temperature;BMP_pressure;BME280_temperature;BME280_humidity;BME280_pressure;Samples;Min_cycle;Max_cycle;Signal;HPM_P1;HPM_P2
2021/01/12 00:00:24;;;;;;;15.25;11.10;;;;;;;6.45;78.45;99941.00;4921599;29;20032;-76
2021/01/12 00:02:56;;;;;;;14.15;10.95;;;;;;;6.45;78.30;99947.34;4922427;29;20501;-76
2021/01/12 00:05:22;;;;;;;13.02;9.73;;;;;;;6.48;78.35;99948.59;4943207;29;20032;-76
2021/01/12 00:07:48;;;;;;;16.00;10.20;;;;;;;6.47;78.63;99947.78;4926177;29;20082;-75
2021/01/12 00:10:14;;;;;;;16.58;11.25;;;;;;;6.48;78.56;99946.63;4925710;29;20038;-75
2021/01/12 00:12:40;;;;;;;14.93;10.57;;;;;;;6.50;78.53;99940.78;4925678;29;20035;-76
2021/01/12 00:15:07;;;;;;;14.90;10.90;;;;;;;6.52;77.79;99952.31;4925172;29;20046;-76
2021/01/12 00:17:33;;;;;;;15.68;10.93;;;;;;;6.43;78.14;99946.06;4924969;29;20043;-76
2021/01/12 00:19:58;;;;;;;12.27;10.88;;;;;;;6.41;78.42;99951.94;4925239;29;20024;-76
2021/01/12 00:22:24;;;;;;;13.55;10.30;;;;;;;6.37;78.17;99950.19;4925855;29;20036;-76
2021/01/12 00:24:51;;;;;;;14.75;11.15;;;;;;;6.32;77.99;99959.47;4925567;29;20024;-75
2021/01/12 00:27:22;;;;;;;18.65;11.73;;;;;;;6.24;77.94;99950.13;4925773;29;20079;-75
2021/01/12 00:29:49;;;;;;;19.70;12.43;;;;;;;6.24;77.89;99950.13;4943154;29;20035;-75
2021/01/12 00:32:22;;;;;;;18.95;12.73;;;;;;;6.27;78.11;99954.16;4925901;29;20382;-75
2021/01/12 00:34:48;;;;;;;17.15;12.70;;;;;;;6.35;78.93;99960.78;4925724;29;20038;-75
2021/01/12 00:37:18;;;;;;;17.65;12.20;;;;;;;6.46;79.25;99951.72;4925453;29;20554;-75
2021/01/12 00:39:43;;;;;;;17.20;13.10;;;;;;;6.37;79.07;99947.41;4924989;29;20039;-75
2021/01/12 00:42:09;;;;;;;22.15;14.30;;;;;;;6.42;78.98;99952.72;4924804;29;20035;-75
2021/01/12 00:44:35;;;;;;;18.20;13.43;;;;;;;6.38;79.05;99951.78;4924616;29;20043;-75
2021/01/12 00:47:00;;;;;;;17.45;13.10;;;;;;;6.39;80.29;99945.09;4925268;29;20039;-75
2021/01/12 00:49:26;;;;;;;17.60;13.52;;;;;;;6.43;79.54;99946.06;4930633;29;20111;-76
2021/01/12 00:51:57;;;;;;;17.58;11.95;;;;;;;6.38;79.32;99947.06;4944365;29;20019;-75
2021/01/12 00:54:23;;;;;;;16.27;12.02;;;;;;;6.38;79.35;99960.06;4944365;29;20035;-75
2021/01/12 00:56:50;;;;;;;17.40;12.77;;;;;;;6.36;78.83;99948.56;4944356;29;20027;-76
2021/01/12 00:59:16;;;;;;;16.83;12.48;;;;;;;6.39;78.99;99953.41;4944449;29;20071;-75
2021/01/12 01:01:43;;;;;;;16.45;10.52;;;;;;;6.44;79.06;99959.53;4943104;29;20038;-76
2021/01/12 01:04:11;;;;;;;15.38;10.77;;;;;;;6.50;78.40;99957.38;4943336;29;20038;-76
2021/01/12 01:06:37;;;;;;;12.68;11.27;;;;;;;6.56;78.77;99956.00;4942646;29;20035;-75
2021/01/12 01:09:03;;;;;;;17.50;10.90;;;;;;;6.58;78.16;99956.47;4942646;29;20039;-75
2021/01/12 01:11:28;;;;;;;18.00;11.77;;;;;;;6.45;79.28;99949.28;4942706;29;20040;-75
2021/01/12 01:13:56;;;;;;;16.35;11.75;;;;;;;6.49;79.42;99951.00;4943129;29;20031;-75
2021/01/12 01:16:30;;;;;;;14.55;11.90;;;;;;;6.45;80.11;99957.59;4942238;29;20126;-76
2021/01/12 01:18:58;;;;;;;17.20;12.85;;;;;;;6.44;80.58;99962.28;4944300;29;20102;-76
2021/01/12 01:21:23;;;;;;;16.58;11.80;;;;;;;6.56;79.05;99962.34;4943805;29;20034;-75
2021/01/12 01:23:52;;;;;;;19.52;12.50;;;;;;;6.68;77.95;99964.31;4942724;29;20110;-75
2021/01/12 01:26:19;;;;;;;13.00;10.93;;;;;;;6.62;78.57;99965.69;4942071;29;20490;-75
2021/01/12 01:28:45;;;;;;;14.88;11.38;;;;;;;6.65;78.17;99967.75;4943113;29;20121;-75
2021/01/12 01:31:11;;;;;;;16.42;10.95;;;;;;;6.68;77.93;99969.84;4942031;29;20058;-76
2021/01/12 01:33:36;;;;;;;14.73;11.27;;;;;;;6.72;78.40;99975.50;4942132;29;20039;-76
2021/01/12 01:36:02;;;;;;;14.52;11.25;;;;;;;6.77;77.90;99978.88;4941945;29;20502;-75
2021/01/12 01:38:28;;;;;;;14.18;10.55;;;;;;;6.72;77.88;99979.09;4941743;29;20098;-75
2021/01/12 01:41:00;;;;;;;12.90;10.75;;;;;;;6.79;77.72;99984.06;4942009;29;20121;-76
2021/01/12 01:43:26;;;;;;;13.00;9.75;;;;;;;6.67;77.73;99971.00;4942095;29;20039;-76
2021/01/12 01:45:52;;;;;;;17.70;9.88;;;;;;;6.71;77.76;99979.41;4942348;29;20020;-76
2021/01/12 01:48:19;;;;;;;13.73;9.85;;;;;;;6.70;78.25;99967.53;4942124;29;20474;-75
2021/01/12 01:50:46;;;;;;;13.52;9.88;;;;;;;6.67;77.72;99973.78;4941642;29;20482;-76
2021/01/12 01:53:12;;;;;;;13.85;10.48;;;;;;;6.68;78.15;99969.06;4944528;29;20099;-75
2021/01/12 01:55:39;;;;;;;14.30;9.32;;;;;;;6.79;77.99;99971.03;4942703;29;20039;-75
2021/01/12 01:58:06;;;;;;;11.00;8.50;;;;;;;6.68;77.86;99969.06;4941510;29;20106;-76
2021/01/12 02:00:36;;;;;;;10.00;8.52;;;;;;;6.59;78.26;99963.59;4942009;29;20031;-75
2021/01/12 02:03:14;;;;;;;9.52;7.63;;;;;;;6.67;78.77;99968.25;4943993;29;20383;-76
2021/01/12 02:05:41;;;;;;;9.82;7.55;;;;;;;6.75;78.79;99964.56;4943598;29;20352;-76
2021/01/12 02:08:16;;;;;;;13.80;8.30;;;;;;;6.76;78.61;99960.63;4942769;29;20027;-76
2021/01/12 02:10:46;;;;;;;13.02;8.60;;;;;;;6.68;78.83;99958.78;4943378;29;20119;-76
2021/01/12 02:13:20;;;;;;;12.73;8.07;;;;;;;6.66;79.07;99949.22;4944441;29;20110;-76
2021/01/12 02:15:47;;;;;;;13.50;7.70;;;;;;;6.78;79.39;99952.03;4944092;29;20474;-76
2021/01/12 02:18:14;;;;;;;13.07;8.68;;;;;;;6.65;78.84;99948.41;4959574;29;20031;-76
2021/01/12 02:20:41;;;;;;;9.88;7.72;;;;;;;6.70;79.63;99945.44;4942829;29;20152;-76
2021/01/12 02:23:16;;;;;;;15.00;8.57;;;;;;;6.65;79.66;99948.41;4942388;29;20031;-75
2021/01/12 02:25:43;;;;;;;9.73;8.30;;;;;;;6.61;80.36;99944.72;4942377;29;20037;-75
2021/01/12 02:28:12;;;;;;;11.63;7.53;;;;;;;6.55;81.37;99943.31;4942233;29;20027;-75
2021/01/12 02:30:38;;;;;;;9.80;6.88;;;;;;;6.56;81.56;99936.66;4942697;29;20039;-75
2021/01/12 02:33:05;;;;;;;12.88;7.90;;;;;;;6.54;81.80;99933.41;4942944;29;20027;-75
2021/01/12 02:35:33;;;;;;;13.18;9.02;;;;;;;6.56;81.74;99933.91;4942310;29;20042;-75
2021/01/12 02:38:01;;;;;;;11.65;8.52;;;;;;;6.60;82.27;99928.47;4942394;29;20027;-76
2021/01/12 02:40:26;;;;;;;10.38;7.85;;;;;;;6.55;82.27;99926.72;4942982;29;20051;-75
2021/01/12 02:42:52;;;;;;;11.77;7.97;;;;;;;6.61;82.14;99919.84;4941903;29;20398;-75
2021/01/12 02:45:19;;;;;;;12.77;8.75;;;;;;;6.58;82.39;99926.06;4941849;29;20049;-76
2021/01/12 02:47:45;;;;;;;13.65;8.88;;;;;;;6.55;82.38;99921.19;4942330;29;20023;-75
2021/01/12 02:50:12;;;;;;;10.63;7.97;;;;;;;6.52;82.34;99916.38;4941243;29;20059;-75
2021/01/12 02:52:40;;;;;;;10.93;8.35;;;;;;;6.51;82.99;99926.63;4959638;29;20024;-75
2021/01/12 02:55:11;;;;;;;12.27;8.82;;;;;;;6.50;83.84;99925.00;4942817;29;20032;-75
2021/01/12 02:57:37;;;;;;;16.10;9.95;;;;;;;6.43;83.61;99912.88;4942994;29;20027;-76
2021/01/12 03:00:11;;;;;;;15.35;10.45;;;;;;;6.58;82.94;99926.06;4943292;29;20038;-76
2021/01/12 03:02:37;;;;;;;13.30;10.00;;;;;;;6.62;82.40;99921.47;4942568;29;20034;-75
2021/01/12 03:05:04;;;;;;;13.70;9.82;;;;;;;6.54;82.66;99911.28;4942276;29;20043;-75
2021/01/12 03:07:30;;;;;;;11.55;9.45;;;;;;;6.56;82.42;99909.00;4943047;29;20034;-76
2021/01/12 03:09:56;;;;;;;13.55;10.52;;;;;;;6.61;81.57;99913.53;4942358;29;20416;-76
2021/01/12 03:12:22;;;;;;;13.48;9.68;;;;;;;6.58;81.51;99912.22;4941821;29;20031;-76
2021/01/12 03:14:48;;;;;;;16.52;10.45;;;;;;;6.60;81.66;99909.13;4942774;29;20076;-75
2021/01/12 03:17:17;;;;;;;12.43;10.15;;;;;;;6.66;81.54;99907.75;4942713;29;20039;-76
2021/01/12 03:19:43;;;;;;;11.38;9.57;;;;;;;6.57;81.49;99899.56;4941993;29;20035;-76
2021/01/12 03:22:11;;;;;;;12.55;9.60;;;;;;;6.52;82.15;99894.25;4941106;29;20100;-75
2021/01/12 03:24:37;;;;;;;13.93;9.77;;;;;;;6.46;82.83;99884.56;4941235;29;20125;-75
2021/01/12 03:27:04;;;;;;;12.93;10.25;;;;;;;6.50;83.27;99896.56;4942638;29;20073;-75
2021/01/12 03:29:29;;;;;;;13.18;9.80;;;;;;;6.44;83.40;99892.38;4942283;29;20107;-75
2021/01/12 03:31:55;;;;;;;11.60;9.23;;;;;;;6.51;82.76;99889.88;4942894;29;20035;-75
2021/01/12 03:34:21;;;;;;;16.17;10.05;;;;;;;6.39;82.97;99887.91;4942266;29;20035;-75
2021/01/12 03:36:47;;;;;;;15.45;10.05;;;;;;;6.40;83.40;99899.75;4943031;29;20046;-75
2021/01/12 03:39:12;;;;;;;12.32;9.40;;;;;;;6.39;82.16;99887.06;4942902;29;20046;-75
2021/01/12 03:41:38;;;;;;;15.98;11.00;;;;;;;6.39;82.88;99889.84;4943136;29;20094;-75
2021/01/12 03:44:03;;;;;;;17.88;11.52;;;;;;;6.38;83.07;99888.22;4943552;29;20039;-75
2021/01/12 03:46:30;;;;;;;20.13;14.23;;;;;;;6.43;83.35;99888.81;4942430;29;20034;-75
2021/01/12 03:48:56;;;;;;;14.32;11.13;;;;;;;6.45;82.75;99889.31;4942709;28;20028;-76
2021/01/12 03:51:24;;;;;;;15.98;11.45;;;;;;;6.39;82.97;99882.38;4943569;29;20078;-75
2021/01/12 03:53:49;;;;;;;13.15;9.15;;;;;;;6.37;83.48;99892.16;4944883;29;20031;-75
2021/01/12 03:56:15;;;;;;;16.20;12.10;;;;;;;6.32;84.26;99890.41;4944014;29;20042;-75
2021/01/12 03:58:41;;;;;;;15.82;12.00;;;;;;;6.37;83.72;99892.16;4944426;29;20035;-76
2021/01/12 04:01:07;;;;;;;17.05;11.93;;;;;;;6.35;83.53;99880.63;4943128;29;20027;-75
2021/01/12 04:03:33;;;;;;;11.15;9.55;;;;;;;6.29;83.80;99880.84;4943441;29;20031;-75
2021/01/12 04:06:03;;;;;;;13.98;11.02;;;;;;;6.36;84.56;99891.34;4943227;29;20114;-75
2021/01/12 04:08:29;;;;;;;22.50;17.30;;;;;;;6.35;84.30;99883.41;4943404;29;20027;-75
2021/01/12 04:10:58;;;;;;;21.98;15.55;;;;;;;6.34;84.01;99877.06;4944865;29;20091;-76
2021/01/12 04:13:23;;;;;;;17.98;12.95;;;;;;;6.34;84.50;99876.25;4945136;29;20046;-76
2021/01/12 04:15:49;;;;;;;13.25;10.80;;;;;;;6.30;84.88;99871.41;4944974;29;20119;-75
2021/01/12 04:18:15;;;;;;;16.38;12.25;;;;;;;6.30;84.31;99874.19;4943220;29;20034;-75
2021/01/12 04:20:41;;;;;;;12.57;9.18;;;;;;;6.41;83.58;99873.75;4943200;29;20028;-76
2021/01/12 04:23:06;;;;;;;10.77;8.02;;;;;;;6.45;81.96;99881.00;4941887;29;20394;-76
2021/01/12 04:25:35;;;;;;;8.63;7.10;;;;;;;6.38;82.08;99877.97;4941541;29;20043;-76
2021/01/12 04:28:04;;;;;;;12.20;7.90;;;;;;;6.37;81.80;99881.09;4940600;29;20031;-75
2021/01/12 04:30:30;;;;;;;10.55;7.63;;;;;;;6.32;82.26;99882.13;4939392;29;20083;-76
2021/01/12 04:32:55;;;;;;;10.07;6.82;;;;;;;6.24;82.96;99872.78;4940237;29;20031;-78
2021/01/12 04:35:21;;;;;;;10.73;7.22;;;;;;;6.16;83.70;99878.38;4940317;29;20031;-75
2021/01/12 04:37:47;;;;;;;9.10;7.10;;;;;;;6.11;83.72;99879.41;4940315;29;20059;-76
2021/01/12 04:40:12;;;;;;;7.72;6.80;;;;;;;6.10;83.86;99875.03;4941396;29;20126;-76
2021/01/12 04:42:38;;;;;;;8.48;6.70;;;;;;;6.12;84.15;99881.00;4940634;29;20031;-76
2021/01/12 04:45:06;;;;;;;10.20;7.45;;;;;;;6.11;84.39;99879.41;4941164;29;20054;-75
2021/01/12 04:47:32;;;;;;;15.43;8.80;;;;;;;6.08;84.18;99885.63;4952841;29;20479;-75
2021/01/12 04:50:01;;;;;;;16.77;10.88;;;;;;;6.08;84.70;99884.81;4929980;29;20066;-75
2021/01/12 04:52:26;;;;;;;17.23;11.45;;;;;;;6.12;85.10;99886.53;4925033;29;20039;-75
2021/01/12 04:54:53;;;;;;;11.63;9.88;;;;;;;6.15;84.35;99877.59;4924877;29;20036;-75
2021/01/12 04:57:19;;;;;;;10.35;8.65;;;;;;;6.09;84.15;99881.72;4925571;29;20383;-75
2021/01/12 04:59:45;;;;;;;9.57;8.00;;;;;;;6.08;84.38;99885.63;4924658;29;20050;-76
2021/01/12 05:02:13;;;;;;;13.13;8.43;;;;;;;6.02;84.44;99878.69;4923257;29;20051;-75
2021/01/12 05:04:42;;;;;;;10.00;7.93;;;;;;;6.11;84.74;99881.38;4925335;29;20028;-76
2021/01/12 05:07:09;;;;;;;10.85;6.95;;;;;;;6.06;84.68;99881.56;4924766;29;20387;-76
2021/01/12 05:09:37;;;;;;;8.60;7.65;;;;;;;6.00;84.43;99889.25;4925628;29;20028;-75
2021/01/12 05:12:04;;;;;;;11.13;8.20;;;;;;;6.04;85.07;99885.50;4924660;29;20038;-77
2021/01/12 05:14:32;;;;;;;12.73;8.75;;;;;;;6.04;84.45;99888.25;4925062;29;20032;-75
2021/01/12 05:16:58;;;;;;;12.90;8.23;;;;;;;6.11;83.98;99884.13;4924886;29;20087;-75
2021/01/12 05:19:29;;;;;;;8.75;7.85;;;;;;;6.08;84.03;99882.88;4925216;29;20454;-75
2021/01/12 05:21:59;;;;;;;8.43;7.28;;;;;;;6.06;83.75;99876.84;4924549;29;20028;-76
2021/01/12 05:24:25;;;;;;;11.65;9.10;;;;;;;6.13;83.40;99887.38;4924936;29;20040;-75
2021/01/12 05:26:51;;;;;;;8.88;7.72;;;;;;;6.08;83.54;99885.63;4925101;29;20044;-76
2021/01/12 05:29:17;;;;;;;7.75;6.95;;;;;;;6.04;83.77;99890.22;4941746;29;20027;-75
2021/01/12 05:31:46;;;;;;;9.15;7.40;;;;;;;6.07;83.70;99889.50;4925598;29;20023;-75
2021/01/12 05:34:16;;;;;;;10.32;7.57;;;;;;;6.04;83.93;99887.44;4925289;29;20031;-75
2021/01/12 05:37:00;;;;;;;8.65;7.15;;;;;;;6.03;83.92;99894.94;4942127;29;20031;-75
2021/01/12 05:39:25;;;;;;;8.93;7.20;;;;;;;6.06;83.93;99898.16;4926067;29;20042;-75
2021/01/12 05:41:54;;;;;;;8.25;6.65;;;;;;;6.11;84.28;99893.22;4925477;29;20119;-75
2021/01/12 05:44:21;;;;;;;8.82;7.05;;;;;;;6.09;84.09;99887.22;4925110;29;20055;-76
2021/01/12 05:46:49;;;;;;;9.18;6.90;;;;;;;6.10;84.33;99877.78;4925156;29;20028;-75
2021/01/12 05:49:21;;;;;;;10.45;6.78;;;;;;;6.08;84.07;99879.28;4947129;29;20103;-75
2021/01/12 05:51:48;;;;;;;8.85;6.85;;;;;;;6.11;83.84;99884.13;4944772;29;20023;-75
2021/01/12 05:54:26;;;;;;;8.73;7.30;;;;;;;6.12;83.33;99874.69;4944404;29;20031;-76
2021/01/12 05:56:56;;;;;;;9.27;6.50;;;;;;;6.09;83.34;99881.72;4945008;29;20023;-76
2021/01/12 05:59:26;;;;;;;7.30;6.60;;;;;;;6.00;83.58;99883.75;4944069;29;20034;-75
2021/01/12 06:01:57;;;;;;;7.45;6.38;;;;;;;6.03;83.41;99891.34;4944294;29;20095;-75
2021/01/12 06:04:24;;;;;;;9.52;7.10;;;;;;;6.11;82.94;99886.88;4944566;29;20071;-75
2021/01/12 06:06:52;;;;;;;9.15;7.15;;;;;;;6.07;82.29;99895.03;4943178;29;20023;-75
2021/01/12 06:09:19;;;;;;;9.85;8.32;;;;;;;6.04;83.19;99892.97;4942500;29;20031;-75
2021/01/12 06:11:47;;;;;;;11.18;7.88;;;;;;;6.09;82.80;99903.81;4941481;29;20482;-76
2021/01/12 06:14:24;;;;;;;9.65;7.20;;;;;;;6.10;83.38;99905.41;4941871;29;20043;-76
2021/01/12 06:16:51;;;;;;;13.55;10.02;;;;;;;6.06;82.39;99903.66;4943873;29;20348;-76
2021/01/12 06:19:20;;;;;;;12.10;8.90;;;;;;;6.09;83.21;99903.81;4943281;29;20467;-77
2021/01/12 06:21:55;;;;;;;9.68;6.82;;;;;;;5.62;82.37;99829.50;4944786;29;20118;-77
2021/01/12 06:24:35;;;;;;;8.52;7.68;;;;;;;6.11;82.24;99907.03;4944218;29;20096;-77
2021/01/12 06:27:13;;;;;;;14.05;8.70;;;;;;;6.12;82.40;99910.59;4943408;29;20053;-77
2021/01/12 06:29:40;;;;;;;9.00;8.00;;;;;;;6.18;82.12;99901.78;4943866;29;20106;-77
2021/01/12 06:32:06;;;;;;;8.43;7.45;;;;;;;6.12;82.08;99896.78;4944102;29;20493;-77
2021/01/12 06:34:32;;;;;;;8.80;7.90;;;;;;;6.11;82.45;99898.75;4944044;29;20099;-77
2021/01/12 06:37:04;;;;;;;10.18;8.05;;;;;;;6.21;82.54;99917.66;4944984;29;20073;-76
2021/01/12 06:39:46;;;;;;;9.82;8.02;;;;;;;6.30;82.06;99912.06;4945560;29;20072;-77
2021/01/12 06:42:14;;;;;;;10.55;8.00;;;;;;;6.27;81.43;99916.28;4944739;29;20035;-77
2021/01/12 06:44:41;;;;;;;12.27;8.85;;;;;;;6.25;82.00;99913.06;4943480;29;20037;-77
2021/01/12 06:47:09;;;;;;;11.48;9.68;;;;;;;6.26;81.83;99906.38;4960535;29;20054;-76
2021/01/12 06:49:35;;;;;;;12.02;9.32;;;;;;;6.32;81.20;99906.19;4943495;29;20130;-76
2021/01/12 06:52:12;;;;;;;14.07;10.60;;;;;;;6.38;81.28;99907.56;4943098;29;20059;-76
2021/01/12 06:54:38;;;;;;;11.77;10.07;;;;;;;6.39;81.75;99909.19;4943714;29;20042;-77
2021/01/12 06:57:15;;;;;;;10.73;9.52;;;;;;;6.37;81.93;99911.50;4942856;29;20504;-77
2021/01/12 06:59:46;;;;;;;16.35;12.15;;;;;;;6.42;81.25;99911.28;4941958;29;20054;-76
2021/01/12 07:02:18;;;;;;;13.60;11.38;;;;;;;6.43;81.35;99913.69;4943671;29;20031;-76
2021/01/12 07:05:19;;;;;;;13.73;11.10;;;;;;;6.52;79.40;99914.41;4941546;29;20031;-76
2021/01/12 07:07:51;;;;;;;15.88;9.93;;;;;;;6.54;79.96;99908.53;4864067;29;20058;-77
2021/01/12 07:10:21;;;;;;;15.32;10.70;;;;;;;6.55;80.89;99915.66;4928033;29;20045;-76
2021/01/12 07:12:48;;;;;;;12.30;9.80;;;;;;;6.54;81.05;99914.06;4940521;29;20055;-77
2021/01/12 07:15:24;;;;;;;11.95;9.48;;;;;;;6.59;80.22;99910.28;4941516;29;20546;-77
2021/01/12 07:17:54;;;;;;;10.90;9.38;;;;;;;6.61;79.59;99913.53;4941695;29;20435;-77
2021/01/12 07:20:27;;;;;;;10.82;8.48;;;;;;;6.55;79.96;99912.91;4939825;29;20099;-76
2021/01/12 07:23:00;;;;;;;12.85;10.82;;;;;;;6.63;80.08;99913.97;4939464;29;20045;-77
2021/01/12 07:25:46;;;;;;;17.10;13.10;;;;;;;6.72;79.95;99915.50;4939840;29;20091;-77
2021/01/12 07:28:14;;;;;;;18.88;13.10;;;;;;;6.71;79.45;99911.13;4941092;29;20053;-76
2021/01/12 07:30:45;;;;;;;14.68;11.18;;;;;;;6.75;80.12;99914.78;4940633;29;20028;-76
2021/01/12 07:33:16;;;;;;;18.08;12.93;;;;;;;6.81;79.00;99918.94;4939460;29;20500;-78
2021/01/12 07:35:43;;;;;;;19.10;12.95;;;;;;;6.81;78.69;99907.06;4942761;29;20038;-79
2021/01/12 07:38:12;;;;;;;21.73;13.07;;;;;;;6.89;79.36;99921.97;4940390;29;20122;-80
2021/01/12 07:40:38;;;;;;;17.42;12.65;;;;;;;7.00;77.52;99920.34;4941496;29;20054;-79
2021/01/12 07:43:03;;;;;;;16.35;12.35;;;;;;;7.04;76.82;99922.09;4940407;29;20497;-79
2021/01/12 07:45:34;;;;;;;15.63;11.93;;;;;;;7.10;76.86;99922.66;4940097;29;20063;-79
2021/01/12 07:48:02;;;;;;;19.20;13.98;;;;;;;7.13;77.78;99913.66;4940575;29;20127;-79
2021/01/12 07:50:30;;;;;;;16.40;13.15;;;;;;;7.18;77.56;99916.19;4939311;29;20093;-78
2021/01/12 07:52:57;;;;;;;14.63;10.18;;;;;;;7.21;76.54;99921.03;4939374;29;20074;-79
2021/01/12 07:55:24;;;;;;;11.65;9.55;;;;;;;7.24;75.51;99927.84;4939651;29;20028;-77
2021/01/12 07:57:51;;;;;;;12.93;8.77;;;;;;;7.34;75.87;99930.94;4954449;29;20098;-83
2021/01/12 08:00:18;;;;;;;11.13;9.18;;;;;;;7.41;75.79;99930.38;4960247;29;20042;-82
2021/01/12 08:02:48;;;;;;;10.13;9.05;;;;;;;7.71;74.94;99925.34;4960596;29;20102;-82
2021/01/12 08:05:18;;;;;;;13.07;10.75;;;;;;;8.02;74.91;99930.22;4959852;29;20015;-81
2021/01/12 08:07:44;;;;;;;13.73;10.70;;;;;;;9.19;70.69;99931.78;4938902;29;20031;-79
2021/01/12 08:10:11;;;;;;;10.90;8.13;;;;;;;10.32;66.52;99935.47;4946284;29;20023;-77
2021/01/12 08:12:36;;;;;;;13.27;8.98;;;;;;;11.27;62.60;99943.94;4941530;29;20042;-81
2021/01/12 08:15:13;;;;;;;12.68;11.30;;;;;;;12.11;59.91;99944.00;4943594;29;20035;-79
2021/01/12 08:17:49;;;;;;;15.73;12.18;;;;;;;12.84;57.10;99942.44;4941050;29;20051;-78
2021/01/12 08:20:17;;;;;;;15.82;12.38;;;;;;;12.91;56.16;99939.69;4947458;29;20032;-80
2021/01/12 08:22:54;;;;;;;12.63;10.93;;;;;;;12.97;55.19;99952.13;4954174;29;20035;-81
2021/01/12 08:25:20;;;;;;;6.85;6.13;;;;;;;13.29;53.92;99946.03;4956644;29;20027;-80
2021/01/12 08:27:53;;;;;;;6.95;6.25;;;;;;;14.01;51.94;99953.72;4943455;29;20051;-82
2021/01/12 08:30:21;;;;;;;8.13;7.25;;;;;;;14.41;50.74;99954.69;4943462;29;20060;-81
2021/01/12 08:32:53;;;;;;;15.27;11.50;;;;;;;14.68;49.68;99956.00;4961463;29;20050;-79
2021/01/12 08:35:23;;;;;;;9.07;8.18;;;;;;;14.86;49.44;99952.41;4950954;29;20042;-80
2021/01/12 08:37:49;;;;;;;8.48;7.63;;;;;;;15.22;49.06;99955.28;4947675;29;20059;-82
2021/01/12 08:40:17;;;;;;;8.68;7.50;;;;;;;14.61;52.94;99958.78;4942982;29;20070;-79
2021/01/12 08:42:44;;;;;;;9.55;8.15;;;;;;;13.65;56.42;99971.47;4943460;29;20118;-79
2021/01/12 08:45:13;;;;;;;9.60;7.28;;;;;;;12.80;56.18;99961.13;4942791;29;20130;-78
2021/01/12 08:47:39;;;;;;;8.98;7.45;;;;;;;12.14;55.11;99959.94;4951390;29;20471;-80
2021/01/12 08:50:07;;;;;;;6.53;5.90;;;;;;;11.65;56.88;99966.41;4962413;28;20043;-81
2021/01/12 08:52:34;;;;;;;6.35;5.45;;;;;;;11.24;57.35;99961.41;4948637;29;20089;-82
2021/01/12 08:55:14;;;;;;;6.93;5.93;;;;;;;11.12;57.51;99966.34;4932698;29;20034;-79
2021/01/12 08:57:41;;;;;;;7.90;6.10;;;;;;;10.95;58.06;99968.47;4960804;29;20036;-82
2021/01/12 09:00:12;;;;;;;8.43;6.75;;;;;;;10.95;59.29;99976.00;4963469;29;20027;-82
2021/01/12 09:02:38;;;;;;;7.60;6.90;;;;;;;11.01;59.79;99969.75;4962307;29;20181;-81
2021/01/12 09:05:04;;;;;;;6.75;6.05;;;;;;;10.86;59.20;99979.03;4962631;29;20039;-81
2021/01/12 09:07:32;;;;;;;7.70;6.80;;;;;;;10.74;59.95;99968.88;4963519;29;20098;-83
2021/01/12 09:09:58;;;;;;;9.40;7.95;;;;;;;10.75;60.64;99976.03;4963201;29;20034;-81
2021/01/12 09:12:24;;;;;;;8.68;7.82;;;;;;;10.57;59.85;99990.81;4962017;29;20106;-83
2021/01/12 09:14:50;;;;;;;9.25;7.53;;;;;;;10.69;60.34;99990.63;4962450;29;20063;-82
2021/01/12 09:17:20;;;;;;;11.45;8.25;;;;;;;10.75;61.40;100001.09;4962186;29;20034;-82
2021/01/12 09:19:53;;;;;;;13.00;7.97;;;;;;;10.73;60.77;99995.09;4962700;29;20091;-83
2021/01/12 09:22:20;;;;;;;12.45;7.47;;;;;;;10.49;61.34;99996.22;4962191;29;20031;-81
2021/01/12 09:24:54;;;;;;;6.75;6.05;;;;;;;10.31;60.57;99989.47;4963242;29;20122;-82
2021/01/12 09:27:21;;;;;;;;;;;;;;;10.51;60.80;99995.06;4947385;29;20412;-83
2021/01/12 09:29:47;;;;;;;7.47;5.63;;;;;;;10.88;58.59;99985.03;4962349;29;19921;-81
2021/01/12 09:32:25;;;;;;;5.72;4.35;;;;;;;11.15;56.82;99985.13;4946618;29;20128;-82
2021/01/12 09:34:50;;;;;;;6.55;5.60;;;;;;;12.03;57.06;99988.50;4962509;29;20031;-83
2021/01/12 09:37:20;;;;;;;7.95;6.40;;;;;;;12.91;53.80;99987.16;4961694;29;20047;-81
2021/01/12 09:39:57;;;;;;;9.27;7.57;;;;;;;13.32;51.83;99985.19;4963211;29;20035;-81
2021/01/12 09:42:24;;;;;;;9.68;6.60;;;;;;;13.80;49.66;99981.56;4963078;29;20027;-81
2021/01/12 09:44:51;;;;;;;7.82;7.03;;;;;;;13.74;49.88;99991.47;4931992;29;20034;-80
2021/01/12 09:47:17;;;;;;;8.75;5.15;;;;;;;13.11;50.78;99982.19;4949995;29;20064;-81
2021/01/12 09:53:24;;;;;;;11.98;5.90;;;;;;;12.92;51.43;99983.19;4979169;29;20046;-81
2021/01/12 09:55:50;;;;;;;6.00;5.35;;;;;;;13.01;49.24;99980.09;4961907;29;20058;-82
2021/01/12 09:58:16;;;;;;;9.75;7.40;;;;;;;13.21;51.19;99983.44;4961347;29;20042;-82
2021/01/12 10:00:42;;;;;;;5.72;4.88;;;;;;;13.25;49.58;99981.53;4962646;29;20015;-78
2021/01/12 10:03:07;;;;;;;33.15;17.58;;;;;;;12.97;50.37;99973.66;4961541;29;20031;-82
2021/01/12 10:05:40;;;;;;;10.90;7.65;;;;;;;13.40;48.87;99974.06;4960577;29;20035;-82
2021/01/12 10:08:07;;;;;;;3.67;3.38;;;;;;;13.46;47.55;99972.50;4962174;29;20027;-83
2021/01/12 10:10:33;;;;;;;5.00;3.80;;;;;;;13.72;47.40;99972.31;4963351;29;20015;-80
2021/01/12 10:12:59;;;;;;;3.95;3.58;;;;;;;13.79;45.73;99960.34;4957769;29;20098;-81
2021/01/12 10:15:25;;;;;;;4.85;3.88;;;;;;;13.78;47.30;99967.16;4959320;29;20023;-81
2021/01/12 10:17:51;;;;;;;3.38;3.08;;;;;;;14.10;46.35;99970.94;4962639;29;20042;-82
2021/01/12 10:20:16;;;;;;;4.97;4.35;;;;;;;13.20;48.54;99960.28;4959466;29;20447;-81
2021/01/12 10:22:42;;;;;;;3.65;3.13;;;;;;;12.96;49.34;99961.69;4959737;29;20395;-80
2021/01/12 10:25:08;;;;;;;4.82;3.05;;;;;;;12.47;49.14;99959.19;4963448;29;20050;-82
2021/01/12 10:27:56;;;;;;;3.13;2.88;;;;;;;12.48;49.95;99963.56;4963744;29;20035;-82
2021/01/12 10:30:22;;;;;;;4.28;3.33;;;;;;;12.66;48.77;99956.19;4963273;28;20015;-82
2021/01/12 10:32:51;;;;;;;5.20;3.53;;;;;;;12.85;49.35;99953.22;4947080;29;20027;-81
2021/01/12 10:35:17;;;;;;;6.82;3.72;;;;;;;13.21;48.57;99947.13;4946866;29;20360;-81
2021/01/12 10:37:43;;;;;;;4.25;3.83;;;;;;;12.72;49.02;99931.53;4959707;29;20031;-79
2021/01/12 10:40:11;;;;;;;4.88;4.30;;;;;;;12.56;50.56;99929.75;4974067;28;20095;-79
2021/01/12 10:42:44;;;;;;;5.15;3.97;;;;;;;12.06;51.66;99937.56;4970298;29;20061;-82
2021/01/12 10:45:11;;;;;;;3.65;3.35;;;;;;;11.88;51.66;99927.34;4957129;29;20035;-81
2021/01/12 10:47:43;;;;;;;7.75;3.95;;;;;;;12.12;51.52;99920.50;4957446;29;20031;-81
2021/01/12 10:50:14;;;;;;;4.10;3.70;;;;;;;11.96;52.83;99920.69;4957502;29;20061;-81
2021/01/12 10:52:40;;;;;;;7.28;3.95;;;;;;;11.67;51.65;99919.47;4957854;29;20034;-81
2021/01/12 10:55:07;;;;;;;4.93;4.05;;;;;;;11.71;52.54;99909.16;4957806;29;20067;-80
2021/01/12 10:57:32;;;;;;;9.45;6.65;;;;;;;11.72;52.72;99910.78;4956785;29;20035;-81
2021/01/12 10:59:58;;;;;;;47.10;33.70;;;;;;;11.13;53.92;99907.53;4956637;29;20035;-81
2021/01/12 11:02:24;;;;;;;8.50;6.35;;;;;;;11.18;53.63;99907.19;4957467;29;20036;-81
2021/01/12 11:04:49;;;;;;;8.75;7.25;;;;;;;10.89;54.07;99905.13;4957696;29;20067;-81
2021/01/12 11:07:18;;;;;;;11.25;6.13;;;;;;;10.71;55.38;99904.81;4955305;29;20031;-80
2021/01/12 11:09:47;;;;;;;6.90;4.72;;;;;;;10.72;55.41;99898.09;4954645;29;20058;-82
2021/01/12 11:12:13;;;;;;;11.25;6.55;;;;;;;10.63;56.25;99900.28;4954611;29;20067;-82
2021/01/12 11:14:39;;;;;;;5.93;5.10;;;;;;;10.42;56.28;99897.91;4952413;29;20074;-82
2021/01/12 11:17:04;;;;;;;11.18;6.43;;;;;;;10.49;56.94;99892.47;4953601;29;20035;-81
2021/01/12 11:19:30;;;;;;;6.85;5.05;;;;;;;10.86;55.37;99891.94;4953434;29;20039;-81
2021/01/12 11:21:57;;;;;;;12.55;5.80;;;;;;;11.33;54.46;99883.16;4952464;29;20031;-82
2021/01/12 11:24:26;;;;;;;8.35;5.85;;;;;;;11.65;53.83;99894.75;4952412;29;20027;-82
2021/01/12 11:26:53;;;;;;;12.02;7.18;;;;;;;11.92;52.90;99887.19;4952793;29;20030;-81
2021/01/12 11:29:20;;;;;;;5.93;5.32;;;;;;;11.95;52.08;99880.84;4950806;29;20454;-82
2021/01/12 11:31:46;;;;;;;7.28;5.72;;;;;;;12.01;52.87;99879.34;4950707;29;20038;-81
2021/01/12 11:34:12;;;;;;;5.25;4.35;;;;;;;11.80;51.08;99879.84;4950521;29;20035;-81
2021/01/12 11:36:40;;;;;;;5.22;4.07;;;;;;;11.80;51.51;99895.75;4952181;29;20035;-80
2021/01/12 11:39:10;;;;;;;11.52;5.40;;;;;;;11.66;52.79;99890.78;4952322;29;20028;-82